createdAt,value
2022-10-06T00:00:54.943Z,100021.66
2022-10-06T00:03:23.519Z,100040.13
2022-10-06T00:05:51.904Z,100077.53
2022-10-06T00:08:19.401Z,100072.91
2022-10-06T00:10:46.215Z,100055.34
2022-10-06T00:13:12.891Z,100086.53
2022-10-06T00:15:39.743Z,100088.09
2022-10-06T00:18:06.581Z,100049.25
2022-10-06T00:20:33.347Z,100082.97
2022-10-06T00:23:00.120Z,100070.25
2022-10-06T00:25:28.316Z,100059.94
2022-10-06T00:27:56.202Z,100069.69
2022-10-06T00:30:25.515Z,100115.81
2022-10-06T00:32:57.829Z,100079.53
2022-10-06T00:35:26.915Z,100127.41
2022-10-06T00:37:53.753Z,100112.25
2022-10-06T00:40:21.955Z,100116.31
2022-10-06T00:42:58.997Z,100122.09
2022-10-06T00:45:32.229Z,100101.06
2022-10-06T00:48:00.660Z,100130.88
2022-10-06T00:50:28.222Z,100100.84
2022-10-06T00:52:55.866Z,100074.38
2022-10-06T00:55:23.374Z,100133.06
2022-10-06T00:57:52.454Z,100136.56
2022-10-06T01:00:19.845Z,100135.72
2022-10-06T01:02:54.808Z,100114.66
2022-10-06T01:05:28.172Z,100132.59
2022-10-06T01:07:55.054Z,100139.09
2022-10-06T01:10:22.079Z,100130.16
2022-10-06T01:12:48.810Z,100101.06
2022-10-06T01:15:16.648Z,100117.41
2022-10-06T01:17:48.492Z,100124.56
2022-10-06T01:20:18.412Z,100109.69
2022-10-06T01:22:48.312Z,100119.91
2022-10-06T01:25:17.855Z,100097.00
2022-10-06T01:27:51.516Z,100096.81
2022-10-06T01:30:25.024Z,100071.84
2022-10-06T01:32:52.445Z,100067.56
2022-10-06T01:35:19.435Z,100118.78
2022-10-06T01:37:46.104Z,100107.25
2022-10-06T01:40:12.798Z,100085.81
2022-10-06T01:42:39.559Z,100135.06
2022-10-06T01:45:06.831Z,100110.94
2022-10-06T01:47:34.684Z,100094.94
2022-10-06T01:50:01.440Z,100092.41
2022-10-06T01:52:28.179Z,100060.97
2022-10-06T01:54:55.059Z,100062.31
2022-10-06T01:57:21.840Z,100106.53
2022-10-06T01:59:53.861Z,100139.59
2022-10-06T02:02:21.355Z,100126.13
2022-10-06T02:04:48.111Z,100129.44
2022-10-06T02:07:14.846Z,100122.72
2022-10-06T02:09:41.533Z,100095.19
2022-10-06T02:12:08.273Z,100087.56
2022-10-06T02:14:35.051Z,100101.06
2022-10-06T02:17:01.755Z,100107.69
2022-10-06T02:19:28.467Z,100128.13
2022-10-06T02:21:55.618Z,100143.59
2022-10-06T02:24:22.423Z,100156.06
2022-10-06T02:26:49.062Z,100138.50
2022-10-06T02:29:15.654Z,100142.78
2022-10-06T02:31:42.418Z,100141.91
2022-10-06T02:34:10.199Z,100133.03
2022-10-06T02:36:37.022Z,100127.44
2022-10-06T02:39:04.253Z,100107.75
2022-10-06T02:41:32.848Z,100150.03
2022-10-06T02:43:59.650Z,100096.00
2022-10-06T02:46:26.449Z,100124.91
2022-10-06T02:48:53.960Z,100126.09
2022-10-06T02:51:22.143Z,100138.78
2022-10-06T02:53:50.041Z,100123.41
2022-10-06T02:56:22.910Z,100152.38
2022-10-06T02:58:50.435Z,100119.56
2022-10-06T03:01:26.232Z,100106.16
2022-10-06T03:03:53.749Z,100146.22
2022-10-06T03:06:25.791Z,100144.91
2022-10-06T03:08:58.657Z,100128.16
2022-10-06T03:11:31.288Z,100145.34
2022-10-06T03:13:58.737Z,100148.38
2022-10-06T03:16:32.145Z,100158.97
2022-10-06T03:18:59.492Z,100154.75
2022-10-06T03:21:29.376Z,100164.00
2022-10-06T03:23:57.454Z,100134.81
2022-10-06T03:26:27.911Z,100174.97
2022-10-06T03:28:55.877Z,100167.47
2022-10-06T03:31:23.816Z,100098.00
2022-10-06T03:33:51.420Z,100168.88
2022-10-06T03:36:20.338Z,100108.69
2022-10-06T03:38:47.521Z,100094.69
2022-10-06T03:41:17.186Z,100157.56
2022-10-06T03:43:45.371Z,100158.66
2022-10-06T03:46:14.639Z,100153.50
2022-10-06T03:48:41.816Z,100151.94
2022-10-06T03:51:13.310Z,100133.53
2022-10-06T03:53:41.057Z,100162.16
2022-10-06T03:56:13.430Z,100144.09
2022-10-06T03:58:42.926Z,100148.94
2022-10-06T04:01:13.869Z,100102.47
2022-10-06T04:03:41.018Z,100150.66
2022-10-06T04:06:12.240Z,100120.03
2022-10-06T04:08:39.930Z,100147.91
2022-10-06T04:11:11.324Z,100159.72
2022-10-06T04:13:39.322Z,100112.06
2022-10-06T04:16:23.075Z,100147.09
2022-10-06T04:18:52.072Z,100131.72
2022-10-06T04:21:19.269Z,100115.53
2022-10-06T04:23:46.623Z,100119.28
2022-10-06T04:26:16.403Z,100119.56
2022-10-06T04:28:44.746Z,100134.25
2022-10-06T04:31:19.281Z,100136.78
2022-10-06T04:33:47.920Z,100137.41
2022-10-06T04:36:17.404Z,100119.22
2022-10-06T04:38:44.346Z,100119.31
2022-10-06T04:41:14.624Z,100132.00
2022-10-06T04:43:41.623Z,100122.16
2022-10-06T04:46:37.764Z,100129.13
2022-10-06T04:48:57.133Z,100136.88
2022-10-06T04:51:26.322Z,100141.16
2022-10-06T04:53:53.099Z,100146.00
2022-10-06T04:56:24.222Z,100127.28
2022-10-06T04:58:52.879Z,100108.09
2022-10-06T05:01:23.453Z,100149.78
2022-10-06T05:03:56.121Z,100139.38
2022-10-06T05:06:41.314Z,100152.25
2022-10-06T05:09:11.146Z,100143.91
2022-10-06T05:11:38.472Z,100143.91
2022-10-06T05:14:05.412Z,100159.56
2022-10-06T05:16:32.460Z,100110.06
2022-10-06T05:18:59.783Z,100154.69
2022-10-06T05:21:29.257Z,100143.38
2022-10-06T05:23:56.515Z,100166.34
2022-10-06T05:26:25.348Z,100157.78
2022-10-06T05:28:52.130Z,100158.19
2022-10-06T05:31:24.662Z,100162.66
2022-10-06T05:33:51.450Z,100167.13
2022-10-06T05:36:20.936Z,100185.84
2022-10-06T05:38:48.270Z,100180.22
2022-10-06T05:41:26.749Z,100196.78
2022-10-06T05:43:53.447Z,100185.69
2022-10-06T05:46:24.015Z,100201.78
2022-10-06T05:48:58.979Z,100183.88
2022-10-06T05:51:31.058Z,100171.28
2022-10-06T05:53:59.547Z,100208.53
2022-10-06T05:56:31.451Z,100163.00
2022-10-06T05:58:59.380Z,100198.75
2022-10-06T06:01:37.441Z,100204.16
2022-10-06T06:04:06.706Z,100215.28
2022-10-06T06:06:39.109Z,100184.88
2022-10-06T06:09:17.588Z,100225.59
2022-10-06T06:11:47.077Z,100227.19
2022-10-06T06:14:44.053Z,100198.56
2022-10-06T06:17:11.665Z,100199.75
2022-10-06T06:19:38.330Z,100222.56
2022-10-06T06:22:04.995Z,100188.06
2022-10-06T06:24:31.770Z,100184.03
2022-10-06T06:26:58.459Z,100236.72
2022-10-06T06:29:25.114Z,100236.22
2022-10-06T06:31:51.981Z,100248.34
2022-10-06T06:34:18.587Z,100249.53
2022-10-06T06:36:47.558Z,100257.38
2022-10-06T06:39:15.491Z,100261.41
2022-10-06T06:41:46.363Z,100267.22
2022-10-06T06:44:14.130Z,100275.06
2022-10-06T06:46:43.557Z,100282.53
2022-10-06T06:49:12.220Z,100287.22
2022-10-06T06:51:41.466Z,100255.25
2022-10-06T06:54:09.979Z,100279.06
2022-10-06T06:56:37.176Z,100233.34
2022-10-06T06:59:09.046Z,100285.94
2022-10-06T07:01:36.538Z,100295.56
2022-10-06T07:04:04.175Z,100294.25
2022-10-06T07:06:31.975Z,100284.56
2022-10-06T07:09:00.257Z,100302.66
2022-10-06T07:11:32.164Z,100265.97
2022-10-06T07:14:04.253Z,100282.47
2022-10-06T07:16:50.478Z,100273.38
2022-10-06T07:19:37.612Z,100248.38
2022-10-06T07:22:25.894Z,100310.81
2022-10-06T07:25:11.721Z,100290.03
2022-10-06T07:27:46.757Z,100317.59
2022-10-06T07:30:13.543Z,100329.34
2022-10-06T07:32:40.230Z,100293.34
2022-10-06T07:35:07.315Z,100342.31
2022-10-06T07:37:36.889Z,100340.03
2022-10-06T07:40:07.592Z,100312.53
2022-10-06T07:42:48.328Z,100310.78
2022-10-06T07:45:33.673Z,100346.97
2022-10-06T07:48:01.853Z,100341.41
2022-10-06T07:50:28.933Z,100359.28
2022-10-06T07:52:55.915Z,100314.28
2022-10-06T07:55:22.924Z,100334.13
2022-10-06T07:57:51.312Z,100356.41
2022-10-06T08:00:21.098Z,100327.31
2022-10-06T08:02:48.459Z,100329.97
2022-10-06T08:05:15.300Z,100273.50
2022-10-06T08:07:41.984Z,100338.13
2022-10-06T08:10:08.999Z,100279.34
2022-10-06T08:12:38.033Z,100311.94
2022-10-06T08:15:07.917Z,100303.13
2022-10-06T08:17:36.657Z,100312.25
2022-10-06T08:20:09.075Z,100358.59
2022-10-06T08:22:39.178Z,100368.88
2022-10-06T08:25:10.930Z,100389.72
2022-10-06T08:27:38.472Z,100358.03
2022-10-06T08:30:07.480Z,100361.06
2022-10-06T08:32:34.687Z,100380.88
2022-10-06T08:35:01.770Z,100386.22
2022-10-06T08:37:28.781Z,100338.22
2022-10-06T08:39:56.823Z,100378.69
2022-10-06T08:42:39.533Z,100363.91
2022-10-06T08:45:16.837Z,100380.59
2022-10-06T08:47:59.140Z,100386.38
2022-10-06T08:50:28.803Z,100406.78
2022-10-06T08:53:26.580Z,100402.38
2022-10-06T08:56:09.218Z,100406.84
2022-10-06T08:58:57.658Z,100413.53
2022-10-06T09:01:27.579Z,100394.91
2022-10-06T09:04:01.858Z,100419.06
2022-10-06T09:07:11.446Z,100433.78
2022-10-06T09:09:53.997Z,100392.25
2022-10-06T09:12:32.928Z,100426.31
2022-10-06T09:15:23.591Z,100400.41
2022-10-06T09:17:56.401Z,100404.78
2022-10-06T09:20:34.405Z,100405.88
2022-10-06T09:23:04.934Z,100429.38
2022-10-06T09:25:32.024Z,100407.88
2022-10-06T09:28:01.198Z,100436.72
2022-10-06T09:30:28.102Z,100427.09
2022-10-06T09:33:00.185Z,100426.50
2022-10-06T09:35:30.275Z,100385.41
2022-10-06T09:38:01.409Z,100414.94
2022-10-06T09:40:34.571Z,100445.09
2022-10-06T09:43:02.416Z,100421.09
2022-10-06T09:45:29.612Z,100400.81
2022-10-06T09:48:24.669Z,100414.78
2022-10-06T09:51:14.911Z,100424.06
2022-10-06T09:53:43.085Z,100446.88
2022-10-06T09:56:19.452Z,100415.81
2022-10-06T09:58:57.959Z,100457.75
2022-10-06T10:01:29.536Z,100470.78
2022-10-06T10:04:23.944Z,100458.75
2022-10-06T10:06:52.019Z,100448.72
2022-10-06T10:09:22.574Z,100475.06
2022-10-06T10:12:28.219Z,100456.38
2022-10-06T10:15:01.962Z,100458.44
2022-10-06T10:17:37.821Z,100463.66
2022-10-06T10:20:19.766Z,100457.59
2022-10-06T10:22:48.587Z,100420.94
2022-10-06T10:25:27.447Z,100461.94
2022-10-06T10:28:29.067Z,100448.00
2022-10-06T10:31:34.003Z,100434.53
2022-10-06T10:34:25.943Z,100455.50
2022-10-06T10:37:09.503Z,100448.31
2022-10-06T10:39:42.126Z,100402.63
2022-10-06T10:42:28.776Z,100382.50
2022-10-06T10:45:04.428Z,100412.13
2022-10-06T10:47:39.475Z,100388.38
2022-10-06T10:50:34.869Z,100427.16
2022-10-06T10:53:10.737Z,100396.59
2022-10-06T10:55:42.931Z,100431.78
2022-10-06T10:58:31.426Z,100463.78
2022-10-06T11:01:32.312Z,100429.28
2022-10-06T11:04:00.962Z,100377.31
2022-10-06T11:06:53.846Z,100461.38
2022-10-06T11:09:49.729Z,100451.91
2022-10-06T11:12:41.231Z,100477.72
2022-10-06T11:15:17.432Z,100443.34
2022-10-06T11:17:47.148Z,100469.16
2022-10-06T11:20:13.823Z,100475.28
2022-10-06T11:22:41.754Z,100482.25
2022-10-06T11:25:19.481Z,100482.53
2022-10-06T11:28:25.208Z,100477.31
2022-10-06T11:31:21.910Z,100484.38
2022-10-06T11:33:53.045Z,100478.44
2022-10-06T11:36:37.913Z,100496.09
2022-10-06T11:39:22.804Z,100501.84
2022-10-06T11:41:58.386Z,100510.22
2022-10-06T11:44:37.211Z,100505.16
2022-10-06T11:47:11.439Z,100514.13
2022-10-06T11:49:52.603Z,100497.28
2022-10-06T11:52:19.273Z,100490.75
2022-10-06T11:54:54.203Z,100495.06
2022-10-06T11:57:27.986Z,100494.00
2022-10-06T12:00:17.479Z,100501.00
2022-10-06T12:02:46.376Z,100483.84
2022-10-06T12:05:45.935Z,100502.16
2022-10-06T12:08:00.859Z,100500.78
2022-10-06T12:10:32.159Z,100503.00
2022-10-06T12:14:15.652Z,100496.44
2022-10-06T12:19:18.786Z,100503.53
2022-10-06T12:22:17.361Z,100505.00
2022-10-06T12:25:03.032Z,100479.06
2022-10-06T12:27:41.964Z,100506.91
2022-10-06T12:30:19.499Z,100506.19
2022-10-06T12:32:53.470Z,100509.03
2022-10-06T12:35:40.307Z,100485.66
2022-10-06T12:38:31.728Z,100516.44
2022-10-06T12:40:59.616Z,100459.00
2022-10-06T12:43:43.998Z,100484.88
2022-10-06T12:46:25.971Z,100511.44
2022-10-06T12:49:26.782Z,100502.63
2022-10-06T12:51:57.781Z,100512.97
2022-10-06T12:54:35.356Z,100515.78
2022-10-06T12:57:14.443Z,100502.13
2022-10-06T12:59:41.967Z,100508.66
2022-10-06T13:02:14.633Z,100526.31
2022-10-06T13:04:43.769Z,100507.94
2022-10-06T13:07:18.343Z,100503.50
2022-10-06T13:09:47.078Z,100516.50
2022-10-06T13:12:29.019Z,100485.75
2022-10-06T13:15:25.224Z,100459.59
2022-10-06T13:18:04.245Z,100510.56
2022-10-06T13:20:38.292Z,100491.06
2022-10-06T13:23:20.178Z,100512.06
2022-10-06T13:25:59.307Z,100477.19
2022-10-06T13:28:34.388Z,100466.31
2022-10-06T13:31:24.748Z,100517.97
2022-10-06T13:34:11.590Z,100469.22
2022-10-06T13:36:41.513Z,100476.03
2022-10-06T13:39:17.424Z,100498.81
2022-10-06T13:41:52.449Z,100479.91
2022-10-06T13:44:19.073Z,100472.81
2022-10-06T13:46:49.601Z,100458.88
2022-10-06T13:49:16.719Z,100501.84
2022-10-06T13:51:51.376Z,100485.84
2022-10-06T13:54:31.447Z,100485.09
2022-10-06T13:56:58.860Z,100496.94
2022-10-06T13:59:25.495Z,100517.59
2022-10-06T14:01:52.348Z,100494.28
2022-10-06T14:04:19.697Z,100528.28
2022-10-06T14:06:56.323Z,100494.22
2022-10-06T14:09:26.996Z,100479.63
2022-10-06T14:12:07.013Z,100516.06
2022-10-06T14:14:34.241Z,100512.66
2022-10-06T14:17:01.139Z,100478.03
2022-10-06T14:19:40.848Z,100493.19
2022-10-06T14:22:38.451Z,100536.50
2022-10-06T14:25:12.865Z,100508.50
2022-10-06T14:27:39.761Z,100481.19
2022-10-06T14:30:07.375Z,100524.91
2022-10-06T14:32:34.267Z,100527.31
2022-10-06T14:35:02.673Z,100526.69
2022-10-06T14:37:29.407Z,100515.47
2022-10-06T14:39:56.640Z,100528.50
2022-10-06T14:42:24.546Z,100524.41
2022-10-06T14:44:51.317Z,100489.25
2022-10-06T14:47:18.048Z,100498.59
2022-10-06T14:49:45.440Z,100528.47
2022-10-06T14:52:12.956Z,100532.81
2022-10-06T14:54:40.061Z,100525.81
2022-10-06T14:57:06.917Z,100500.72
2022-10-06T14:59:33.766Z,100499.06
2022-10-06T15:07:41.093Z,100467.53
2022-10-06T15:12:52.124Z,100397.09
2022-10-06T15:15:20.838Z,100418.75
2022-10-06T15:18:01.282Z,100392.88
2022-10-06T15:20:30.201Z,100359.44
2022-10-06T15:22:59.069Z,100464.09
2022-10-06T15:25:44.369Z,100431.50
2022-10-06T15:28:32.242Z,100454.66
2022-10-06T15:30:59.794Z,100430.13
2022-10-06T15:33:30.468Z,100429.06
2022-10-06T15:36:18.373Z,100397.94
2022-10-06T15:38:46.831Z,100469.16
2022-10-06T15:41:15.346Z,100403.44
2022-10-06T15:44:00.389Z,100430.22
2022-10-06T15:46:34.555Z,100479.50
2022-10-06T15:49:04.979Z,100463.25
2022-10-06T15:51:46.844Z,100412.91
2022-10-06T15:54:21.800Z,100455.50
2022-10-06T15:56:53.105Z,100462.03
2022-10-06T15:59:24.364Z,100329.50
2022-10-06T16:01:56.177Z,100474.38
2022-10-06T16:04:43.573Z,100488.59
2022-10-06T16:12:49.549Z,100319.22
2022-10-06T16:28:51.552Z,100438.47
2022-10-06T16:36:42.232Z,100398.03
2022-10-06T16:41:55.021Z,100412.59
2022-10-06T16:44:21.956Z,100447.84
2022-10-06T16:46:48.873Z,100447.00
2022-10-06T16:49:15.724Z,100454.47
2022-10-06T16:54:28.370Z,100452.31
2022-10-06T16:56:55.597Z,100471.44
2022-10-06T16:59:26.185Z,100431.41
2022-10-06T17:13:36.391Z,100431.63
2022-10-06T17:16:07.619Z,100453.38
2022-10-06T17:18:35.276Z,100393.06
2022-10-06T17:21:20.219Z,100456.44
2022-10-06T17:23:58.312Z,100414.34
2022-10-06T17:26:27.656Z,100426.50
2022-10-06T17:28:58.889Z,100449.50
2022-10-06T17:31:37.428Z,100429.72
2022-10-06T17:34:20.335Z,100427.72
2022-10-06T17:36:49.032Z,100460.03
2022-10-06T17:39:20.723Z,100430.06
2022-10-06T17:41:48.632Z,100412.44
2022-10-06T17:44:20.685Z,100446.28
2022-10-06T17:46:48.276Z,100436.59
2022-10-06T17:49:16.724Z,100484.34
2022-10-06T17:51:50.754Z,100470.53
2022-10-06T17:54:20.878Z,100448.19
2022-10-06T17:56:49.725Z,100434.63
2022-10-06T17:59:22.410Z,100423.75
2022-10-06T18:01:51.469Z,100443.09
2022-10-06T18:04:18.984Z,100436.66
2022-10-06T18:06:47.292Z,100413.22
2022-10-06T18:09:15.141Z,100414.56
2022-10-06T18:11:44.326Z,100436.38
2022-10-06T18:14:19.930Z,100423.34
2022-10-06T18:16:56.866Z,100432.06
2022-10-06T18:19:30.278Z,100436.28
2022-10-06T18:22:00.235Z,100370.47
2022-10-06T18:24:29.434Z,100413.91
2022-10-06T18:26:58.047Z,100411.63
2022-10-06T18:29:29.087Z,100432.16
2022-10-06T18:32:09.155Z,100344.56
2022-10-06T18:37:29.578Z,100382.53
2022-10-06T18:39:57.112Z,100388.66
2022-10-06T18:42:24.648Z,100416.13
2022-10-06T18:45:09.963Z,100376.00
2022-10-06T18:47:55.144Z,100399.66
2022-10-06T18:50:21.954Z,100409.13
2022-10-06T18:52:48.626Z,100340.34
2022-10-06T18:55:15.470Z,100365.84
2022-10-06T18:57:45.993Z,100339.69
2022-10-06T19:00:17.733Z,100369.22
2022-10-06T19:02:48.245Z,100381.25
2022-10-06T19:05:17.398Z,100390.13
2022-10-06T19:07:45.001Z,100332.13
2022-10-06T19:10:12.026Z,100325.19
2022-10-06T19:12:39.077Z,100348.38
2022-10-06T19:15:06.260Z,100343.31
2022-10-06T19:17:32.993Z,100347.75
2022-10-06T19:19:59.719Z,100312.53
2022-10-06T19:22:26.483Z,100340.03
2022-10-06T19:24:53.267Z,100338.69
2022-10-06T19:27:24.355Z,100315.97
2022-10-06T19:29:56.803Z,100318.69
2022-10-06T19:32:26.878Z,100329.84
2022-10-06T19:34:58.134Z,100313.47
2022-10-06T19:37:29.570Z,100300.78
2022-10-06T19:39:56.385Z,100310.31
2022-10-06T19:42:41.639Z,100262.41
2022-10-06T19:45:09.769Z,100279.75
2022-10-06T19:47:36.389Z,100266.97
2022-10-06T19:50:10.279Z,100281.75
2022-10-06T19:52:38.405Z,100261.22
2022-10-06T19:55:05.472Z,100288.22
2022-10-06T19:57:33.710Z,100280.31
2022-10-06T20:00:00.936Z,100284.09
2022-10-06T20:02:29.078Z,100276.00
2022-10-06T20:04:56.430Z,100265.75
2022-10-06T20:07:27.569Z,100275.41
2022-10-06T20:09:54.882Z,100264.97
2022-10-06T20:12:25.025Z,100252.94
2022-10-06T20:14:53.340Z,100214.72
2022-10-06T20:17:20.843Z,100248.59
2022-10-06T20:19:47.639Z,100240.38
2022-10-06T20:22:14.437Z,100243.63
2022-10-06T20:24:41.369Z,100228.47
2022-10-06T20:27:09.058Z,100219.22
2022-10-06T20:29:35.810Z,100228.28
2022-10-06T20:32:05.252Z,100239.97
2022-10-06T20:34:33.232Z,100219.03
2022-10-06T20:37:05.367Z,100202.00
2022-10-06T20:39:52.509Z,100203.41
2022-10-06T20:42:21.149Z,100180.03
2022-10-06T20:44:48.262Z,100191.16
2022-10-06T20:47:16.741Z,100188.69
2022-10-06T20:49:43.999Z,100175.13
2022-10-06T20:52:14.396Z,100174.25
2022-10-06T20:54:41.314Z,100160.53
2022-10-06T20:57:09.517Z,100144.38
2022-10-06T20:59:36.730Z,100164.22
2022-10-06T21:02:04.630Z,100162.31
2022-10-06T21:04:31.312Z,100153.63
2022-10-06T21:06:58.265Z,100125.59
2022-10-06T21:09:25.352Z,100144.13
2022-10-06T21:11:52.624Z,100121.69
2022-10-06T21:14:20.005Z,100115.59
2022-10-06T21:16:48.259Z,100110.50
2022-10-06T21:19:17.399Z,100122.63
2022-10-06T21:21:46.140Z,100091.13
2022-10-06T21:24:12.930Z,100089.88
2022-10-06T21:26:42.760Z,100093.72
2022-10-06T21:29:14.777Z,100082.72
2022-10-06T21:31:42.418Z,100059.81
2022-10-06T21:34:10.558Z,100084.50
2022-10-06T21:36:38.024Z,100118.06
2022-10-06T21:39:06.035Z,100119.53
2022-10-06T21:41:41.343Z,100109.53
2022-10-06T21:44:12.161Z,100112.91
2022-10-06T21:46:41.711Z,100125.59
2022-10-06T21:49:13.863Z,100099.97
2022-10-06T21:51:42.730Z,100086.03
2022-10-06T21:54:10.577Z,100106.88
2022-10-06T21:56:37.799Z,100114.31
2022-10-06T21:59:04.857Z,100108.16
2022-10-06T22:01:34.366Z,100047.59
2022-10-06T22:04:01.590Z,100078.31
2022-10-06T22:06:29.454Z,100039.41
2022-10-06T22:08:57.669Z,100091.22
2022-10-06T22:11:29.341Z,100051.63
2022-10-06T22:14:02.634Z,100079.81
2022-10-06T22:16:30.220Z,100074.94
2022-10-06T22:18:57.601Z,100059.97
2022-10-06T22:21:30.025Z,100034.31
2022-10-06T22:24:02.424Z,100018.41
2022-10-06T22:26:31.649Z,100036.66
2022-10-06T22:28:59.878Z,100042.03
2022-10-06T22:31:28.175Z,100043.53
2022-10-06T22:33:57.441Z,100038.56
2022-10-06T22:36:24.973Z,100020.31
2022-10-06T22:38:52.145Z,100028.75
2022-10-06T22:41:19.226Z,99991.59
2022-10-06T22:43:46.065Z,100029.69
2022-10-06T22:46:13.378Z,100034.53
2022-10-06T22:48:40.555Z,100021.03
2022-10-06T22:51:07.825Z,99990.91
2022-10-06T22:53:35.209Z,99987.38
2022-10-06T22:56:04.096Z,99992.88
2022-10-06T22:58:31.176Z,100011.81
2022-10-06T23:00:57.913Z,99981.47
2022-10-06T23:03:24.943Z,99988.88
2022-10-06T23:06:00.281Z,100032.53
2022-10-06T23:08:32.658Z,100016.19
2022-10-06T23:11:14.301Z,99989.41
2022-10-06T23:13:43.274Z,100014.94
2022-10-06T23:16:12.755Z,100003.94
2022-10-06T23:18:41.169Z,99993.19
2022-10-06T23:21:09.324Z,99992.03
2022-10-06T23:23:36.622Z,99999.63
2022-10-06T23:26:08.675Z,99987.69
2022-10-06T23:28:35.402Z,99967.34
2022-10-06T23:31:04.869Z,99957.72
2022-10-06T23:33:32.761Z,99944.78
2022-10-06T23:36:01.984Z,99942.13
2022-10-06T23:38:29.021Z,99952.25
2022-10-06T23:40:56.220Z,99947.50
2022-10-06T23:43:23.329Z,99945.41
2022-10-06T23:45:50.516Z,99931.97
2022-10-06T23:48:17.513Z,99934.38
2022-10-06T23:50:55.062Z,99939.50
2022-10-06T23:53:21.693Z,99926.75
2022-10-06T23:55:48.510Z,99955.56
2022-10-06T23:58:15.556Z,99954.69
